Time;durP1;ratioP1;P1;durP2;ratioP2;P2;SDS_P1;SDS_P2;PMS_P1;PMS_P2;Temp;Humidity;BMP_temperature;BMP_pressure;BME280_temperature;BME280_humidity;BME280_pressure;Samples;Min_cycle;Max_cycle;Signal;HPM_P1;HPM_P2
2020/12/13 00:00:47;;;;;;;24.00;14.90;;;;;;;;;;5117672;27;20913;-78
2020/12/13 00:03:14;;;;;;;22.93;14.63;;;;;;;;;;5124943;28;20490;-77
2020/12/13 00:05:41;;;;;;;26.80;15.30;;;;;;;;;;5132119;27;20459;-77
2020/12/13 00:08:08;;;;;;;26.47;16.37;;;;;;;;;;5132231;27;20983;-77
2020/12/13 00:10:34;;;;;;;28.27;15.77;;;;;;;;;;5132032;27;20947;-77
2020/12/13 00:13:02;;;;;;;23.70;15.30;;;;;;;;;;5113046;27;20552;-77
2020/12/13 00:15:29;;;;;;;24.20;15.70;;;;;;;;;;5113766;28;20493;-77
2020/12/13 00:17:56;;;;;;;22.20;13.73;;;;;;;;;;5113969;28;20447;-77
2020/12/13 00:20:22;;;;;;;19.40;14.13;;;;;;;;;;5113852;28;20444;-77
2020/12/13 00:22:49;;;;;;;22.67;14.37;;;;;;;;;;5117185;28;20789;-77
2020/12/13 00:25:16;;;;;;;21.87;14.00;;;;;;;;;;5124339;27;20471;-77
2020/12/13 00:27:43;;;;;;;19.40;14.00;;;;;;;;;;5131933;27;20435;-76
2020/12/13 00:30:11;;;;;;;27.57;15.00;;;;;;;;;;5131653;27;20451;-77
2020/12/13 00:32:37;;;;;;;21.93;14.30;;;;;;;;;;5131962;27;20524;-77
2020/12/13 00:35:05;;;;;;;27.57;13.40;;;;;;;;;;5113256;27;20800;-77
2020/12/13 00:37:31;;;;;;;24.63;14.40;;;;;;;;;;5113352;28;20444;-77
2020/12/13 00:39:58;;;;;;;23.17;14.60;;;;;;;;;;5113694;28;20443;-77
2020/12/13 00:42:25;;;;;;;22.30;14.10;;;;;;;;;;5113632;28;20525;-77
2020/12/13 00:44:52;;;;;;;26.47;15.40;;;;;;;;;;5120512;27;20478;-77
2020/12/13 00:47:20;;;;;;;21.77;14.40;;;;;;;;;;5128219;27;20472;-76
2020/12/13 00:49:46;;;;;;;20.40;13.43;;;;;;;;;;5135311;27;20484;-77
2020/12/13 00:52:13;;;;;;;25.33;16.00;;;;;;;;;;5135156;27;20444;-78
2020/12/13 00:54:40;;;;;;;28.23;18.10;;;;;;;;;;5135572;27;20862;-77
2020/12/13 00:57:07;;;;;;;27.23;15.70;;;;;;;;;;5116776;27;20544;-76
2020/12/13 00:59:33;;;;;;;25.47;15.50;;;;;;;;;;5117098;27;20452;-76
2020/12/13 01:02:00;;;;;;;24.67;16.03;;;;;;;;;;5116948;28;20451;-76
2020/12/13 01:04:28;;;;;;;21.20;15.90;;;;;;;;;;5116847;28;20439;-76
2020/12/13 01:06:55;;;;;;;27.00;15.30;;;;;;;;;;5120282;27;20437;-75
2020/12/13 01:09:22;;;;;;;25.87;14.03;;;;;;;;;;5127912;27;21033;-76
2020/12/13 01:11:49;;;;;;;23.70;14.53;;;;;;;;;;5134920;27;20948;-76
2020/12/13 01:14:15;;;;;;;23.17;15.83;;;;;;;;;;5134628;27;20442;-76
2020/12/13 01:16:42;;;;;;;23.23;14.03;;;;;;;;;;5134999;27;20432;-76
2020/12/13 01:19:09;;;;;;;21.63;14.20;;;;;;;;;;5116044;27;20444;-77
2020/12/13 01:21:37;;;;;;;23.60;14.30;;;;;;;;;;5116649;28;20792;-76
2020/12/13 01:24:04;;;;;;;22.47;14.77;;;;;;;;;;5116435;28;20569;-77
2020/12/13 01:26:31;;;;;;;18.80;13.20;;;;;;;;;;5116646;28;20544;-77
2020/12/13 01:28:57;;;;;;;20.40;15.00;;;;;;;;;;5120332;27;20811;-76
2020/12/13 01:31:24;;;;;;;24.13;15.17;;;;;;;;;;5116606;27;20843;-76
2020/12/13 01:33:52;;;;;;;28.20;14.70;;;;;;;;;;5113833;28;20450;-77
2020/12/13 01:36:20;;;;;;;21.97;14.33;;;;;;;;;;5112720;28;20886;-76
2020/12/13 01:38:48;;;;;;;21.67;14.50;;;;;;;;;;5113974;28;20451;-75
2020/12/13 01:41:15;;;;;;;21.63;14.50;;;;;;;;;;5095870;28;21006;-76
2020/12/13 01:43:54;;;;;;;24.83;15.17;;;;;;;;;;5095869;28;20434;-75
2020/12/13 01:46:21;;;;;;;25.23;14.10;;;;;;;;;;5094265;28;20827;-75
2020/12/13 01:48:48;;;;;;;20.83;14.37;;;;;;;;;;5098029;27;20827;-77
2020/12/13 01:51:21;;;;;;;20.50;13.90;;;;;;;;;;5119990;27;20919;-76
2020/12/13 01:53:50;;;;;;;23.87;14.87;;;;;;;;;;5128885;27;20463;-77
2020/12/13 01:56:17;;;;;;;23.40;13.97;;;;;;;;;;5133889;27;20492;-77
2020/12/13 01:58:46;;;;;;;18.37;13.03;;;;;;;;;;5133963;27;20680;-77
2020/12/13 02:01:13;;;;;;;23.70;15.20;;;;;;;;;;5130817;27;20437;-76
2020/12/13 02:03:44;;;;;;;22.90;14.43;;;;;;;;;;5115868;28;20440;-76
2020/12/13 02:06:13;;;;;;;27.13;14.93;;;;;;;;;;5115776;28;20468;-77
2020/12/13 02:08:41;;;;;;;20.98;14.38;;;;;;;;;;5114443;28;20479;-75
2020/12/13 02:11:09;;;;;;;19.20;14.30;;;;;;;;;;5115093;27;20206;-77
2020/12/13 02:13:37;;;;;;;19.73;13.60;;;;;;;;;;5118242;27;20419;-78
2020/12/13 02:16:04;;;;;;;19.87;13.73;;;;;;;;;;5130058;27;20795;-78
2020/12/13 02:18:30;;;;;;;18.87;12.77;;;;;;;;;;5133631;27;20455;-77
2020/12/13 02:20:58;;;;;;;18.10;12.80;;;;;;;;;;5133591;27;20448;-77
2020/12/13 02:23:25;;;;;;;19.83;14.03;;;;;;;;;;5127770;27;20471;-77
2020/12/13 02:25:52;;;;;;;20.30;13.70;;;;;;;;;;5115274;28;20559;-77
2020/12/13 02:28:19;;;;;;;18.83;13.20;;;;;;;;;;5115258;28;20426;-77
2020/12/13 02:30:46;;;;;;;23.00;14.83;;;;;;;;;;5115234;28;20436;-77
2020/12/13 02:33:12;;;;;;;19.83;13.33;;;;;;;;;;5116213;27;20786;-77
2020/12/13 02:35:39;;;;;;;20.17;12.93;;;;;;;;;;5118863;27;20449;-77
2020/12/13 02:38:06;;;;;;;19.57;13.73;;;;;;;;;;5129526;27;20435;-77
2020/12/13 02:40:34;;;;;;;19.60;13.77;;;;;;;;;;5132919;27;20439;-77
2020/12/13 02:43:01;;;;;;;19.80;13.70;;;;;;;;;;5133364;27;20793;-77
2020/12/13 02:45:27;;;;;;;22.97;14.00;;;;;;;;;;5128849;27;20463;-77
2020/12/13 02:47:54;;;;;;;19.57;13.47;;;;;;;;;;5114857;28;20445;-77
2020/12/13 02:50:21;;;;;;;20.40;14.37;;;;;;;;;;5114605;28;20496;-76
2020/12/13 02:52:48;;;;;;;19.10;13.63;;;;;;;;;;5114783;28;20445;-77
2020/12/13 02:55:15;;;;;;;20.90;14.20;;;;;;;;;;5115581;27;20457;-77
2020/12/13 02:57:42;;;;;;;19.70;14.10;;;;;;;;;;5118572;27;20441;-79
2020/12/13 03:00:09;;;;;;;20.70;13.63;;;;;;;;;;5129217;27;20435;-80
2020/12/13 03:02:36;;;;;;;18.13;12.90;;;;;;;;;;5132889;27;20444;-78
2020/12/13 03:05:03;;;;;;;21.00;13.60;;;;;;;;;;5132822;27;20461;-79
2020/12/13 03:07:30;;;;;;;19.00;14.20;;;;;;;;;;5127664;27;20535;-79
2020/12/13 03:09:56;;;;;;;19.37;13.47;;;;;;;;;;5114617;28;20568;-78
2020/12/13 03:12:25;;;;;;;17.37;13.10;;;;;;;;;;5114433;28;20524;-79
2020/12/13 03:14:53;;;;;;;20.87;13.73;;;;;;;;;;5114345;28;20458;-79
2020/12/13 03:17:20;;;;;;;18.33;12.57;;;;;;;;;;5115261;27;20502;-81
2020/12/13 03:19:46;;;;;;;17.10;12.93;;;;;;;;;;5118085;27;20434;-80
2020/12/13 03:22:13;;;;;;;17.50;12.23;;;;;;;;;;5128857;27;20443;-83
2020/12/13 03:24:40;;;;;;;18.60;12.83;;;;;;;;;;5132010;27;21014;-79
2020/12/13 03:27:08;;;;;;;17.10;12.50;;;;;;;;;;5132538;27;20490;-79
2020/12/13 03:29:35;;;;;;;17.50;12.30;;;;;;;;;;5127641;27;20484;-81
2020/12/13 03:32:03;;;;;;;19.20;13.77;;;;;;;;;;5115611;28;20520;-81
2020/12/13 03:34:29;;;;;;;17.87;11.63;;;;;;;;;;5117846;27;21854;-79
2020/12/13 03:36:56;;;;;;;17.37;12.10;;;;;;;;;;5111622;28;20448;-80
2020/12/13 03:39:23;;;;;;;19.40;12.77;;;;;;;;;;5111765;28;20452;-81
2020/12/13 03:41:50;;;;;;;18.07;13.23;;;;;;;;;;5111868;28;20444;-78
2020/12/13 03:44:17;;;;;;;19.10;13.27;;;;;;;;;;5112049;28;20457;-80
2020/12/13 03:46:43;;;;;;;20.40;12.00;;;;;;;;;;5114125;28;20436;-78
2020/12/13 03:49:11;;;;;;;19.40;12.73;;;;;;;;;;5113917;28;20483;-79
2020/12/13 03:51:38;;;;;;;17.50;12.03;;;;;;;;;;5114323;28;20777;-78
2020/12/13 03:54:05;;;;;;;17.20;12.50;;;;;;;;;;5115939;28;21195;-79
2020/12/13 03:56:32;;;;;;;17.40;11.53;;;;;;;;;;5117589;28;21004;-78
2020/12/13 03:58:59;;;;;;;18.33;12.27;;;;;;;;;;5111315;28;20434;-77
2020/12/13 04:01:25;;;;;;;19.67;13.57;;;;;;;;;;5111460;28;20445;-79
2020/12/13 04:03:52;;;;;;;21.07;14.10;;;;;;;;;;5111493;28;20443;-78
2020/12/13 04:06:20;;;;;;;20.60;13.50;;;;;;;;;;5112009;28;20481;-80
2020/12/13 04:08:47;;;;;;;19.23;13.80;;;;;;;;;;5114071;28;20482;-79
2020/12/13 04:11:14;;;;;;;19.27;12.80;;;;;;;;;;5113868;28;20536;-80
2020/12/13 04:13:41;;;;;;;18.67;12.10;;;;;;;;;;5113790;28;20930;-82
2020/12/13 04:16:08;;;;;;;16.63;11.70;;;;;;;;;;5115212;28;20452;-78
2020/12/13 04:18:34;;;;;;;18.83;12.10;;;;;;;;;;5120947;27;20214;-81
2020/12/13 04:21:01;;;;;;;14.50;10.83;;;;;;;;;;5134917;27;20432;-81
2020/12/13 04:23:29;;;;;;;14.60;11.17;;;;;;;;;;5135697;27;20471;-80
2020/12/13 04:25:56;;;;;;;14.00;10.00;;;;;;;;;;5136229;27;20463;-79
2020/12/13 04:28:23;;;;;;;14.20;10.40;;;;;;;;;;5128262;27;20545;-79
2020/12/13 04:30:50;;;;;;;17.17;11.37;;;;;;;;;;5117447;28;20496;-79
2020/12/13 04:33:16;;;;;;;14.60;9.80;;;;;;;;;;5117593;28;20553;-81
2020/12/13 04:35:43;;;;;;;15.13;9.77;;;;;;;;;;5117488;28;20468;-82
2020/12/13 04:38:10;;;;;;;14.63;10.03;;;;;;;;;;5117842;27;20436;-79
2020/12/13 04:40:38;;;;;;;18.80;10.63;;;;;;;;;;5121080;27;20432;-80
2020/12/13 04:43:04;;;;;;;15.50;9.97;;;;;;;;;;5114743;27;20486;-79
2020/12/13 04:45:31;;;;;;;13.00;10.20;;;;;;;;;;5114562;28;20497;-80
2020/12/13 04:48:06;;;;;;;15.30;10.47;;;;;;;;;;5115086;28;20890;-80
2020/12/13 04:50:34;;;;;;;16.77;9.83;;;;;;;;;;5114109;28;20848;-80
2020/12/13 04:53:04;;;;;;;15.57;10.47;;;;;;;;;;5116079;28;20437;-80
2020/12/13 04:55:30;;;;;;;13.97;10.17;;;;;;;;;;5117166;28;20465;-79
2020/12/13 04:57:58;;;;;;;13.93;9.70;;;;;;;;;;5117040;28;20432;-78
2020/12/13 05:00:27;;;;;;;14.00;9.87;;;;;;;;;;5119090;27;20450;-81
2020/12/13 05:02:54;;;;;;;11.40;8.57;;;;;;;;;;5121603;27;20481;-77
2020/12/13 05:05:22;;;;;;;11.73;9.37;;;;;;;;;;5134619;27;20820;-79
2020/12/13 05:07:48;;;;;;;13.00;9.13;;;;;;;;;;5134979;27;20439;-78
2020/12/13 05:10:15;;;;;;;11.33;8.77;;;;;;;;;;5134880;27;20574;-79
2020/12/13 05:12:42;;;;;;;12.77;9.10;;;;;;;;;;5125448;27;20808;-79
2020/12/13 05:15:11;;;;;;;14.17;9.10;;;;;;;;;;5116710;28;20468;-81
2020/12/13 05:17:37;;;;;;;15.57;10.10;;;;;;;;;;5116637;28;20433;-78
2020/12/13 05:20:06;;;;;;;12.80;9.47;;;;;;;;;;5116586;28;21010;-79
2020/12/13 05:22:38;;;;;;;13.35;9.15;;;;;;;;;;5118573;27;20427;-79
2020/12/13 05:25:10;;;;;;;10.17;8.90;;;;;;;;;;5121200;27;20230;-79
2020/12/13 05:27:40;;;;;;;11.70;9.10;;;;;;;;;;5132900;27;20455;-81
2020/12/13 05:30:07;;;;;;;13.37;9.27;;;;;;;;;;5132781;27;20229;-78
2020/12/13 05:32:35;;;;;;;11.67;8.70;;;;;;;;;;5135111;27;20525;-80
2020/12/13 05:35:02;;;;;;;13.35;9.70;;;;;;;;;;5123055;27;20507;-81
2020/12/13 05:37:30;;;;;;;14.23;10.90;;;;;;;;;;5116285;28;20195;-79
2020/12/13 05:39:56;;;;;;;15.23;9.37;;;;;;;;;;5115317;28;20452;-79
2020/12/13 05:42:26;;;;;;;14.87;9.17;;;;;;;;;;5117217;28;20528;-78
2020/12/13 05:52:58;;;;;;;12.30;9.07;;;;;;;;;;5134005;27;20938;-81
2020/12/13 05:55:25;;;;;;;15.93;10.20;;;;;;;;;;5134259;27;20458;-79
2020/12/13 05:57:53;;;;;;;8.80;7.70;;;;;;;;;;5116554;27;20532;-79
2020/12/13 06:00:20;;;;;;;12.67;9.57;;;;;;;;;;5115984;28;20446;-80
2020/12/13 06:02:49;;;;;;;12.80;9.77;;;;;;;;;;5115707;28;20512;-79
2020/12/13 06:05:16;;;;;;;10.83;8.40;;;;;;;;;;5114690;28;20457;-79
2020/12/13 06:07:48;;;;;;;12.20;9.13;;;;;;;;;;5119538;27;20423;-81
2020/12/13 06:10:23;;;;;;;10.67;8.67;;;;;;;;;;5115488;27;20487;-75
2020/12/13 06:12:58;;;;;;;12.82;9.05;;;;;;;;;;5113386;28;20434;-77
2020/12/13 06:15:24;;;;;;;9.93;8.30;;;;;;;;;;5113247;28;20226;-76
2020/12/13 06:17:52;;;;;;;11.73;8.50;;;;;;;;;;5113034;28;20286;-75
2020/12/13 06:20:19;;;;;;;11.17;9.20;;;;;;;;;;5115372;28;20452;-76
2020/12/13 06:22:46;;;;;;;11.43;8.23;;;;;;;;;;5115620;28;20449;-76
2020/12/13 06:25:13;;;;;;;12.30;9.00;;;;;;;;;;5115017;28;20314;-76
2020/12/13 06:27:40;;;;;;;12.03;8.27;;;;;;;;;;5115494;27;20441;-75
2020/12/13 06:30:09;;;;;;;10.93;8.60;;;;;;;;;;5119250;27;20516;-76
2020/12/13 06:32:40;;;;;;;11.65;8.70;;;;;;;;;;5128233;27;20431;-77
2020/12/13 06:35:07;;;;;;;11.13;8.50;;;;;;;;;;5132011;27;20757;-76
2020/12/13 06:37:36;;;;;;;11.07;8.57;;;;;;;;;;5133328;27;20208;-77
2020/12/13 06:40:04;;;;;;;11.45;9.05;;;;;;;;;;5129937;27;20536;-76
2020/12/13 06:42:33;;;;;;;11.90;8.97;;;;;;;;;;5113440;28;20205;-76
2020/12/13 06:45:07;;;;;;;14.27;9.53;;;;;;;;;;5114894;28;20505;-78
2020/12/13 06:47:38;;;;;;;16.08;9.60;;;;;;;;;;5114889;28;20474;-77
2020/12/13 06:50:05;;;;;;;12.77;9.43;;;;;;;;;;5115664;27;20237;-75
2020/12/13 06:52:33;;;;;;;13.10;9.23;;;;;;;;;;5118426;27;20291;-79
2020/12/13 06:55:01;;;;;;;16.10;9.95;;;;;;;;;;5113130;27;20221;-78
2020/12/13 06:57:30;;;;;;;12.27;10.13;;;;;;;;;;5112328;28;20290;-78
2020/12/13 06:59:57;;;;;;;13.27;9.45;;;;;;;;;;5112408;28;20710;-77
2020/12/13 07:02:38;;;;;;;17.65;11.10;;;;;;;;;;5112369;28;20202;-77
2020/12/13 07:05:05;;;;;;;22.58;10.00;;;;;;;;;;5114234;28;20216;-77
2020/12/13 07:07:37;;;;;;;16.00;10.55;;;;;;;;;;5114636;28;20285;-77
2020/12/13 07:10:05;;;;;;;18.13;10.95;;;;;;;;;;5114388;28;20778;-77
2020/12/13 07:12:31;;;;;;;14.38;10.18;;;;;;;;;;5116104;27;20210;-77
2020/12/13 07:14:58;;;;;;;16.25;11.60;;;;;;;;;;5118037;27;20213;-77
2020/12/13 07:17:30;;;;;;;17.92;10.55;;;;;;;;;;5131182;27;20194;-77
2020/12/13 07:19:57;;;;;;;16.00;10.90;;;;;;;;;;5132749;27;20201;-78
2020/12/13 07:22:33;;;;;;;17.83;12.52;;;;;;;;;;5132813;27;20219;-77
2020/12/13 07:25:01;;;;;;;18.58;11.30;;;;;;;;;;5114700;27;20267;-77
2020/12/13 07:27:28;;;;;;;16.20;11.15;;;;;;;;;;5113490;28;20663;-76
2020/12/13 07:29:55;;;;;;;18.63;12.40;;;;;;;;;;5113049;28;20221;-75
2020/12/13 07:32:23;;;;;;;20.17;11.88;;;;;;;;;;5113319;28;20196;-76
2020/12/13 07:34:50;;;;;;;22.75;13.35;;;;;;;;;;5116367;27;20695;-76
2020/12/13 07:37:17;;;;;;;16.17;12.07;;;;;;;;;;5117981;27;20649;-76
2020/12/13 07:39:44;;;;;;;17.50;11.40;;;;;;;;;;5111275;28;20202;-76
2020/12/13 07:42:13;;;;;;;16.42;11.15;;;;;;;;;;5111732;28;20440;-76
2020/12/13 07:44:40;;;;;;;17.08;12.32;;;;;;;;;;5111764;28;20355;-77
2020/12/13 07:47:07;;;;;;;17.40;12.50;;;;;;;;;;5112435;28;20564;-86
2020/12/13 07:49:34;;;;;;;16.90;11.13;;;;;;;;;;5114351;28;20219;-82
2020/12/13 07:52:03;;;;;;;14.50;10.40;;;;;;;;;;5114645;28;20528;-88
2020/12/13 07:54:32;;;;;;;13.47;10.03;;;;;;;;;;5118269;28;20203;-79
2020/12/13 07:56:59;;;;;;;17.37;10.80;;;;;;;;;;5120221;27;20479;-87
2020/12/13 07:59:28;;;;;;;13.85;10.45;;;;;;;;;;5121439;27;20424;-76
2020/12/13 08:01:55;;;;;;;13.77;10.20;;;;;;;;;;5113976;28;20204;-77
2020/12/13 08:04:37;;;;;;;27.10;10.00;;;;;;;;;;5114493;28;20558;-76
2020/12/13 08:07:04;;;;;;;16.20;10.50;;;;;;;;;;5114869;28;20454;-77
2020/12/13 08:09:31;;;;;;;16.00;9.95;;;;;;;;;;5116496;28;20470;-77
2020/12/13 08:11:58;;;;;;;15.40;11.87;;;;;;;;;;5118056;28;20205;-78
2020/12/13 08:14:25;;;;;;;17.20;10.60;;;;;;;;;;5117848;28;20437;-78
2020/12/13 08:16:53;;;;;;;16.60;10.70;;;;;;;;;;5113127;27;20473;-72
2020/12/13 08:19:24;;;;;;;20.40;12.00;;;;;;;;;;5120980;27;20553;-75
2020/12/13 08:21:56;;;;;;;16.27;11.63;;;;;;;;;;5123804;27;20422;-77
2020/12/13 08:24:23;;;;;;;19.77;10.77;;;;;;;;;;5128407;27;20450;-75
2020/12/13 08:26:52;;;;;;;17.93;10.50;;;;;;;;;;5118617;27;20677;-76
2020/12/13 08:29:20;;;;;;;16.67;10.53;;;;;;;;;;5124253;27;20538;-76
2020/12/13 08:31:47;;;;;;;20.30;10.90;;;;;;;;;;5113853;28;20796;-76
2020/12/13 08:34:15;;;;;;;14.63;10.50;;;;;;;;;;5113559;28;20448;-75
2020/12/13 08:36:51;;;;;;;19.43;10.83;;;;;;;;;;5112263;27;20532;-75
2020/12/13 08:39:18;;;;;;;14.57;9.60;;;;;;;;;;5115536;27;20473;-75
2020/12/13 08:41:46;;;;;;;18.90;11.70;;;;;;;;;;5118335;27;20516;-75
2020/12/13 08:44:27;;;;;;;15.47;10.80;;;;;;;;;;5133817;27;20440;-76
2020/12/13 08:46:54;;;;;;;19.33;12.07;;;;;;;;;;5133073;27;20793;-76
2020/12/13 08:49:25;;;;;;;18.40;12.07;;;;;;;;;;5135912;27;20507;-75
2020/12/13 08:51:52;;;;;;;16.30;11.65;;;;;;;;;;5123400;27;20445;-77
2020/12/13 08:54:19;;;;;;;16.70;12.30;;;;;;;;;;5117146;28;20284;-75
2020/12/13 08:56:46;;;;;;;20.00;13.60;;;;;;;;;;5117133;28;20619;-75
2020/12/13 08:59:19;;;;;;;21.27;12.50;;;;;;;;;;5116998;28;20441;-76
2020/12/13 09:01:53;;;;;;;23.83;12.13;;;;;;;;;;5117545;27;20435;-75
2020/12/13 09:04:20;;;;;;;15.77;11.67;;;;;;;;;;5119473;27;20921;-77
2020/12/13 09:06:56;;;;;;;17.60;11.33;;;;;;;;;;5117114;27;20449;-75
2020/12/13 09:09:23;;;;;;;14.13;11.57;;;;;;;;;;5092693;28;20571;-76
2020/12/13 09:11:50;;;;;;;17.60;12.10;;;;;;;;;;5093185;28;20523;-76
2020/12/13 09:14:32;;;;;;;19.73;12.30;;;;;;;;;;5094705;28;20492;-75
2020/12/13 09:16:59;;;;;;;17.40;11.50;;;;;;;;;;5095267;28;20939;-76
2020/12/13 09:19:26;;;;;;;15.00;10.83;;;;;;;;;;5096208;28;20448;-76
2020/12/13 09:21:54;;;;;;;17.17;11.23;;;;;;;;;;5096085;28;21002;-76
2020/12/13 09:24:23;;;;;;;16.50;11.60;;;;;;;;;;5110246;27;20460;-76
2020/12/13 09:27:04;;;;;;;15.80;11.00;;;;;;;;;;5120939;27;20435;-76
2020/12/13 09:29:32;;;;;;;13.30;10.20;;;;;;;;;;5133374;27;20475;-76
2020/12/13 09:31:59;;;;;;;15.93;10.80;;;;;;;;;;5134449;27;20461;-75
2020/12/13 09:34:26;;;;;;;13.67;9.53;;;;;;;;;;5134975;27;20437;-75
2020/12/13 09:36:53;;;;;;;13.50;10.57;;;;;;;;;;5119529;27;20442;-75
2020/12/13 09:39:20;;;;;;;12.43;9.53;;;;;;;;;;5114930;28;20533;-76
2020/12/13 09:41:47;;;;;;;11.23;7.50;;;;;;;;;;5108720;27;20841;-75
2020/12/13 09:44:14;;;;;;;9.50;7.87;;;;;;;;;;5120090;27;20509;-75
2020/12/13 09:46:41;;;;;;;8.50;7.10;;;;;;;;;;5128737;27;20514;-76
2020/12/13 09:49:08;;;;;;;12.60;6.00;;;;;;;;;;5134444;27;20965;-76
2020/12/13 09:51:35;;;;;;;11.73;5.87;;;;;;;;;;5134282;27;20443;-76
2020/12/13 09:54:01;;;;;;;7.90;6.03;;;;;;;;;;5095206;27;20449;-75
2020/12/13 09:56:28;;;;;;;5.47;4.80;;;;;;;;;;5095472;28;20462;-75
2020/12/13 09:58:56;;;;;;;5.43;4.50;;;;;;;;;;5095772;28;20439;-76
2020/12/13 10:01:23;;;;;;;5.90;4.57;;;;;;;;;;5095490;28;21003;-76
2020/12/13 10:03:53;;;;;;;5.10;4.60;;;;;;;;;;5109227;28;20942;-75
2020/12/13 10:09:03;;;;;;;4.37;3.90;;;;;;;;;;5128113;27;20440;-75
2020/12/13 10:11:31;;;;;;;6.23;4.10;;;;;;;;;;5134049;27;20852;-75
2020/12/13 10:13:59;;;;;;;4.80;3.83;;;;;;;;;;5119572;27;20449;-76
2020/12/13 10:16:25;;;;;;;6.70;4.07;;;;;;;;;;5113292;28;20663;-76
2020/12/13 10:18:52;;;;;;;5.00;3.90;;;;;;;;;;5116064;28;20525;-76
2020/12/13 10:21:21;;;;;;;5.77;4.53;;;;;;;;;;5116531;28;20441;-75
2020/12/13 10:23:47;;;;;;;6.00;4.60;;;;;;;;;;5108478;28;20507;-76
2020/12/13 10:26:14;;;;;;;7.47;4.23;;;;;;;;;;5102664;27;20953;-77
2020/12/13 10:28:41;;;;;;;5.00;3.63;;;;;;;;;;5119653;27;21804;-77
2020/12/13 10:31:10;;;;;;;5.17;3.87;;;;;;;;;;5130680;27;21003;-77
2020/12/13 10:33:40;;;;;;;5.27;4.00;;;;;;;;;;5133339;27;20495;-75
2020/12/13 10:36:07;;;;;;;4.90;3.97;;;;;;;;;;5128570;27;20470;-75
2020/12/13 10:38:34;;;;;;;6.77;4.00;;;;;;;;;;5093000;28;20808;-75
2020/12/13 10:41:01;;;;;;;10.20;4.33;;;;;;;;;;5094708;28;20522;-75
2020/12/13 10:43:28;;;;;;;6.77;4.40;;;;;;;;;;5094675;28;20537;-74
2020/12/13 10:45:54;;;;;;;7.00;3.70;;;;;;;;;;5094343;28;20459;-74
2020/12/13 10:48:22;;;;;;;5.40;3.80;;;;;;;;;;5112932;27;20444;-75
2020/12/13 10:50:49;;;;;;;5.17;3.63;;;;;;;;;;5118795;27;20548;-75
2020/12/13 10:53:16;;;;;;;5.17;3.53;;;;;;;;;;5128986;27;20801;-75
2020/12/13 10:55:42;;;;;;;4.40;3.83;;;;;;;;;;5110856;27;20446;-75
2020/12/13 10:58:09;;;;;;;4.73;3.30;;;;;;;;;;5097622;28;20529;-75
2020/12/13 11:00:36;;;;;;;3.73;3.40;;;;;;;;;;5108630;28;20435;-78
2020/12/13 11:03:03;;;;;;;8.00;3.83;;;;;;;;;;5112684;27;20452;-75
2020/12/13 11:05:30;;;;;;;3.83;3.43;;;;;;;;;;5115220;27;20467;-75
2020/12/13 11:07:57;;;;;;;5.53;3.73;;;;;;;;;;5126529;27;20538;-75
2020/12/13 11:10:24;;;;;;;16.70;3.33;;;;;;;;;;5106433;28;20496;-75
2020/12/13 11:12:51;;;;;;;5.40;3.53;;;;;;;;;;5108857;28;20460;-75
2020/12/13 11:15:18;;;;;;;3.80;3.03;;;;;;;;;;5108807;28;20501;-75
2020/12/13 11:17:45;;;;;;;5.70;3.17;;;;;;;;;;5110908;28;20441;-75
2020/12/13 11:20:12;;;;;;;4.53;3.03;;;;;;;;;;5108946;28;21047;-76
2020/12/13 11:22:39;;;;;;;3.50;3.03;;;;;;;;;;5110640;28;20438;-75
2020/12/13 11:25:06;;;;;;;4.70;2.93;;;;;;;;;;5111747;27;20477;-75
2020/12/13 11:27:35;;;;;;;4.03;3.20;;;;;;;;;;5114543;27;20428;-76
2020/12/13 11:30:01;;;;;;;3.33;2.30;;;;;;;;;;5100900;28;20487;-75
2020/12/13 11:32:28;;;;;;;7.33;3.33;;;;;;;;;;5088219;28;20966;-80
2020/12/13 11:34:55;;;;;;;2.93;2.60;;;;;;;;;;5088553;28;21161;-76
2020/12/13 11:37:22;;;;;;;4.60;2.67;;;;;;;;;;5088271;28;20958;-75
2020/12/13 11:39:50;;;;;;;3.03;2.73;;;;;;;;;;5093858;28;20452;-77
2020/12/13 11:42:18;;;;;;;2.23;1.90;;;;;;;;;;5110001;28;20535;-74
2020/12/13 11:44:45;;;;;;;2.47;2.27;;;;;;;;;;5110295;28;20832;-76
2020/12/13 11:47:12;;;;;;;4.10;2.80;;;;;;;;;;5111151;28;20436;-74
2020/12/13 11:49:38;;;;;;;4.70;2.80;;;;;;;;;;5113525;28;20465;-77
2020/12/13 11:52:05;;;;;;;4.00;2.40;;;;;;;;;;5109331;28;20460;-74
2020/12/13 11:54:32;;;;;;;2.73;1.53;;;;;;;;;;5108423;28;20457;-74
2020/12/13 11:57:00;;;;;;;1.80;1.53;;;;;;;;;;5108279;28;20441;-75
2020/12/13 11:59:28;;;;;;;4.13;2.30;;;;;;;;;;5107597;28;20549;-74
2020/12/13 12:01:54;;;;;;;3.10;2.13;;;;;;;;;;5096762;28;20459;-75
2020/12/13 12:04:21;;;;;;;3.70;2.60;;;;;;;;;;5091941;28;20932;-74
2020/12/13 12:06:49;;;;;;;6.93;2.60;;;;;;;;;;5092881;28;20438;-75
2020/12/13 12:09:16;;;;;;;3.53;1.77;;;;;;;;;;5113486;28;20447;-74
2020/12/13 12:11:43;;;;;;;2.80;1.93;;;;;;;;;;5119156;27;20447;-74
2020/12/13 12:14:11;;;;;;;2.50;1.83;;;;;;;;;;5130940;27;20466;-74
2020/12/13 12:16:38;;;;;;;4.77;2.13;;;;;;;;;;5132117;27;20463;-75
2020/12/13 12:19:05;;;;;;;1.97;1.70;;;;;;;;;;5130555;28;20441;-75
2020/12/13 12:21:34;;;;;;;3.10;1.50;;;;;;;;;;5118372;27;20464;-75
2020/12/13 12:24:01;;;;;;;2.97;1.63;;;;;;;;;;5116946;27;20453;-74
2020/12/13 12:26:31;;;;;;;1.73;1.50;;;;;;;;;;5110808;28;21002;-74
2020/12/13 12:28:58;;;;;;;3.60;2.10;;;;;;;;;;5111141;28;20976;-74
2020/12/13 12:31:26;;;;;;;7.77;1.80;;;;;;;;;;5103846;28;20479;-74
2020/12/13 12:33:53;;;;;;;2.07;1.60;;;;;;;;;;5091871;28;20476;-74
2020/12/13 12:36:21;;;;;;;2.77;1.80;;;;;;;;;;5091846;28;20458;-74
2020/12/13 12:38:48;;;;;;;2.10;1.60;;;;;;;;;;5095064;28;20530;-74
2020/12/13 12:41:16;;;;;;;2.03;1.50;;;;;;;;;;5100308;28;20434;-74
2020/12/13 12:43:43;;;;;;;3.33;1.60;;;;;;;;;;5119237;27;20561;-75
2020/12/13 12:46:10;;;;;;;2.70;1.70;;;;;;;;;;5121570;27;20458;-74
2020/12/13 12:48:38;;;;;;;4.77;1.73;;;;;;;;;;5135017;27;20947;-74
2020/12/13 12:51:05;;;;;;;2.23;1.50;;;;;;;;;;5135158;27;20576;-75
2020/12/13 12:53:32;;;;;;;1.97;1.50;;;;;;;;;;5094981;27;20507;-74
2020/12/13 12:55:59;;;;;;;2.17;1.67;;;;;;;;;;5095157;28;20462;-75
2020/12/13 12:58:28;;;;;;;5.30;2.30;;;;;;;;;;5095688;28;20972;-75
2020/12/13 13:00:57;;;;;;;3.67;2.00;;;;;;;;;;5095300;28;20435;-75
2020/12/13 13:03:25;;;;;;;3.43;2.03;;;;;;;;;;5097393;28;20457;-75
2020/12/13 13:06:00;;;;;;;4.87;1.53;;;;;;;;;;5106088;27;20445;-75
2020/12/13 13:08:29;;;;;;;6.33;1.77;;;;;;;;;;5120772;27;20898;-75
2020/12/13 13:10:58;;;;;;;3.10;2.10;;;;;;;;;;5094019;28;20835;-75
2020/12/13 13:13:26;;;;;;;2.60;1.57;;;;;;;;;;5095280;28;20446;-75
2020/12/13 13:15:56;;;;;;;5.10;2.20;;;;;;;;;;5093853;28;20451;-75
2020/12/13 13:18:25;;;;;;;9.10;3.80;;;;;;;;;;5094750;28;20481;-76
2020/12/13 13:20:55;;;;;;;4.43;3.10;;;;;;;;;;5096371;28;20522;-75
2020/12/13 13:23:25;;;;;;;5.37;2.50;;;;;;;;;;5102489;28;20481;-75
2020/12/13 13:25:51;;;;;;;2.60;2.30;;;;;;;;;;5116402;28;20455;-75
2020/12/13 13:28:18;;;;;;;2.67;1.77;;;;;;;;;;5117951;27;20454;-76
2020/12/13 13:30:45;;;;;;;4.47;2.40;;;;;;;;;;5119951;27;20473;-75
2020/12/13 13:33:12;;;;;;;3.90;2.10;;;;;;;;;;5111349;27;20898;-74
2020/12/13 13:35:39;;;;;;;3.30;1.93;;;;;;;;;;5093610;28;20488;-76
2020/12/13 13:38:07;;;;;;;4.30;2.07;;;;;;;;;;5093688;28;20443;-75
2020/12/13 13:40:34;;;;;;;2.60;2.00;;;;;;;;;;5093163;28;21007;-75
2020/12/13 13:43:03;;;;;;;2.93;2.00;;;;;;;;;;5095846;28;20447;-75
2020/12/13 13:45:46;;;;;;;2.87;1.80;;;;;;;;;;5113508;28;20461;-75
2020/12/13 13:48:35;;;;;;;2.47;1.47;;;;;;;;;;5116112;28;20438;-75
2020/12/13 13:51:01;;;;;;;3.50;1.83;;;;;;;;;;5117582;27;20567;-75
2020/12/13 13:53:29;;;;;;;5.73;2.87;;;;;;;;;;5121688;27;20945;-75
2020/12/13 13:55:57;;;;;;;3.20;2.00;;;;;;;;;;5097955;27;20541;-75
2020/12/13 13:58:25;;;;;;;3.37;1.60;;;;;;;;;;5093238;28;20638;-77
2020/12/13 14:00:52;;;;;;;5.37;2.20;;;;;;;;;;5093348;28;20820;-76
2020/12/13 14:03:19;;;;;;;5.30;2.03;;;;;;;;;;5094076;28;20508;-76
2020/12/13 14:05:49;;;;;;;9.50;2.42;;;;;;;;;;5108325;28;20472;-76
2020/12/13 14:08:40;;;;;;;6.97;2.17;;;;;;;;;;5115648;28;20230;-75
2020/12/13 14:11:08;;;;;;;2.93;1.60;;;;;;;;;;5118961;27;20823;-75
2020/12/13 14:13:35;;;;;;;2.90;2.00;;;;;;;;;;5124339;27;20440;-74
2020/12/13 14:16:02;;;;;;;3.70;2.20;;;;;;;;;;5107624;27;20943;-74
2020/12/13 14:18:29;;;;;;;3.23;1.97;;;;;;;;;;5092623;28;20812;-74
2020/12/13 14:20:56;;;;;;;3.20;2.17;;;;;;;;;;5092101;28;20446;-74
2020/12/13 14:23:27;;;;;;;4.40;2.07;;;;;;;;;;5093925;28;20449;-75
2020/12/13 14:25:54;;;;;;;2.47;1.90;;;;;;;;;;5102530;28;20511;-74
2020/12/13 14:28:22;;;;;;;4.87;1.80;;;;;;;;;;5115352;28;20911;-73
2020/12/13 14:30:50;;;;;;;4.80;1.97;;;;;;;;;;5114832;28;20480;-75
2020/12/13 14:33:17;;;;;;;3.22;1.90;;;;;;;;;;5118474;27;20947;-75
2020/12/13 14:35:44;;;;;;;2.10;1.77;;;;;;;;;;5118326;27;20315;-74
2020/12/13 14:38:11;;;;;;;4.47;1.97;;;;;;;;;;5113388;28;20475;-74
2020/12/13 14:40:38;;;;;;;6.30;2.33;;;;;;;;;;5112843;28;20471;-74
2020/12/13 14:43:05;;;;;;;3.40;1.73;;;;;;;;;;5113075;28;20806;-74